sensor_id;sensor_type;location;lat;lon;timestamp;pressure;altitude;pressure_sealevel;temperature;humidity
39773;BME280;25451;51.960;6.250;2022-07-03T00:01:52;101628.38;;;20.35;56.45
39773;BME280;25451;51.960;6.250;2022-07-03T00:04:18;101623.88;;;20.34;56.55
39773;BME280;25451;51.960;6.250;2022-07-03T00:06:45;101619.19;;;20.30;56.52
39773;BME280;25451;51.960;6.250;2022-07-03T00:09:11;101615.81;;;20.28;56.69
39773;BME280;25451;51.960;6.250;2022-07-03T00:11:37;101604.09;;;20.21;56.60
39773;BME280;25451;51.960;6.250;2022-07-03T00:14:03;101614.72;;;20.24;56.83
39773;BME280;25451;51.960;6.250;2022-07-03T00:16:29;101612.50;;;20.21;56.89
39773;BME280;25451;51.960;6.250;2022-07-03T00:18:54;101614.19;;;20.22;56.88
39773;BME280;25451;51.960;6.250;2022-07-03T00:21:25;101599.84;;;20.18;56.83
39773;BME280;25451;51.960;6.250;2022-07-03T00:26:30;101586.19;;;20.07;57.19
39773;BME280;25451;51.960;6.250;2022-07-03T00:28:59;101588.13;;;20.11;57.21
39773;BME280;25451;51.960;6.250;2022-07-03T00:31:25;101583.41;;;20.02;57.26
39773;BME280;25451;51.960;6.250;2022-07-03T00:33:54;101587.91;;;20.03;57.24
39773;BME280;25451;51.960;6.250;2022-07-03T00:36:21;101581.50;;;19.97;57.40
39773;BME280;25451;51.960;6.250;2022-07-03T00:38:48;101588.47;;;20.00;57.30
39773;BME280;25451;51.960;6.250;2022-07-03T00:41:29;101588.50;;;19.95;57.51
39773;BME280;25451;51.960;6.250;2022-07-03T00:43:55;101570.38;;;19.82;57.57
39773;BME280;25451;51.960;6.250;2022-07-03T00:46:22;101577.59;;;19.88;57.71
39773;BME280;25451;51.960;6.250;2022-07-03T00:48:48;101588.53;;;19.90;57.76
39773;BME280;25451;51.960;6.250;2022-07-03T00:51:14;101596.69;;;19.86;57.82
39773;BME280;25451;51.960;6.250;2022-07-03T00:53:41;101588.00;;;19.82;57.69
39773;BME280;25451;51.960;6.250;2022-07-03T00:56:08;101584.97;;;19.79;57.80
39773;BME280;25451;51.960;6.250;2022-07-03T00:58:36;101570.16;;;19.68;57.90
39773;BME280;25451;51.960;6.250;2022-07-03T01:01:02;101542.19;;;19.53;58.02
39773;BME280;25451;51.960;6.250;2022-07-03T01:03:28;101567.38;;;19.63;58.15
39773;BME280;25451;51.960;6.250;2022-07-03T01:06:03;101575.47;;;19.65;58.18
39773;BME280;25451;51.960;6.250;2022-07-03T01:08:42;101571.00;;;19.64;58.08
39773;BME280;25451;51.960;6.250;2022-07-03T01:11:48;101575.22;;;19.61;58.23
39773;BME280;25451;51.960;6.250;2022-07-03T01:14:43;101580.56;;;19.58;58.23
39773;BME280;25451;51.960;6.250;2022-07-03T01:19:48;101575.25;;;19.51;58.40
39773;BME280;25451;51.960;6.250;2022-07-03T01:22:28;101570.25;;;19.48;58.43
39773;BME280;25451;51.960;6.250;2022-07-03T01:30:16;101564.13;;;19.36;58.69
39773;BME280;25451;51.960;6.250;2022-07-03T01:32:46;101555.41;;;19.33;58.73
39773;BME280;25451;51.960;6.250;2022-07-03T01:35:15;101567.19;;;19.35;58.81
39773;BME280;25451;51.960;6.250;2022-07-03T01:37:44;101566.06;;;19.31;58.76
39773;BME280;25451;51.960;6.250;2022-07-03T01:40:10;101552.38;;;19.19;58.92
39773;BME280;25451;51.960;6.250;2022-07-03T01:42:36;101559.63;;;19.20;58.95
39773;BME280;25451;51.960;6.250;2022-07-03T01:45:09;101546.22;;;19.12;58.82
39773;BME280;25451;51.960;6.250;2022-07-03T01:47:34;101558.81;;;19.20;59.16
39773;BME280;25451;51.960;6.250;2022-07-03T01:50:01;101545.97;;;19.09;59.15
39773;BME280;25451;51.960;6.250;2022-07-03T01:52:29;101557.97;;;19.14;59.09
39773;BME280;25451;51.960;6.250;2022-07-03T01:54:57;101552.13;;;19.11;59.16
39773;BME280;25451;51.960;6.250;2022-07-03T01:57:35;101559.97;;;19.09;59.30
39773;BME280;25451;51.960;6.250;2022-07-03T02:00:03;101551.84;;;19.02;59.44
39773;BME280;25451;51.960;6.250;2022-07-03T02:02:33;101556.34;;;19.03;59.43
39773;BME280;25451;51.960;6.250;2022-07-03T02:05:02;101548.25;;;18.96;59.52
39773;BME280;25451;51.960;6.250;2022-07-03T02:07:52;101541.78;;;18.96;59.66
39773;BME280;25451;51.960;6.250;2022-07-03T02:10:28;101544.31;;;18.92;59.68
39773;BME280;25451;51.960;6.250;2022-07-03T02:13:01;101536.22;;;18.86;59.77
39773;BME280;25451;51.960;6.250;2022-07-03T02:15:32;101531.22;;;18.83;59.59
39773;BME280;25451;51.960;6.250;2022-07-03T02:18:08;101533.44;;;18.81;59.65
39773;BME280;25451;51.960;6.250;2022-07-03T02:20:36;101540.44;;;18.78;59.84
39773;BME280;25451;51.960;6.250;2022-07-03T02:23:05;101555.53;;;18.77;59.86
39773;BME280;25451;51.960;6.250;2022-07-03T02:25:34;101556.09;;;18.74;59.83
39773;BME280;25451;51.960;6.250;2022-07-03T02:30:30;101554.16;;;18.60;60.01
39773;BME280;25451;51.960;6.250;2022-07-03T02:32:59;101571.19;;;18.63;60.04
39773;BME280;25451;51.960;6.250;2022-07-03T02:35:27;101560.31;;;18.62;60.15
39773;BME280;25451;51.960;6.250;2022-07-03T02:40:31;101573.19;;;18.53;60.21
39773;BME280;25451;51.960;6.250;2022-07-03T02:45:30;101569.53;;;18.47;60.38
39773;BME280;25451;51.960;6.250;2022-07-03T02:48:02;101554.94;;;18.35;60.41
39773;BME280;25451;51.960;6.250;2022-07-03T02:50:31;101565.88;;;18.42;60.33
39773;BME280;25451;51.960;6.250;2022-07-03T02:53:04;101566.41;;;18.34;60.49
39773;BME280;25451;51.960;6.250;2022-07-03T03:00:58;101588.50;;;18.30;60.34
39773;BME280;25451;51.960;6.250;2022-07-03T03:03:29;101592.69;;;18.28;60.64
39773;BME280;25451;51.960;6.250;2022-07-03T03:05:57;101577.31;;;18.20;60.70
39773;BME280;25451;51.960;6.250;2022-07-03T03:08:37;101582.63;;;18.21;60.57
39773;BME280;25451;51.960;6.250;2022-07-03T03:11:09;101592.38;;;18.19;60.72
39773;BME280;25451;51.960;6.250;2022-07-03T03:13:36;101581.78;;;18.16;60.63
39773;BME280;25451;51.960;6.250;2022-07-03T03:16:20;101582.59;;;18.11;60.71
39773;BME280;25451;51.960;6.250;2022-07-03T03:18:47;101583.69;;;18.10;60.72
39773;BME280;25451;51.960;6.250;2022-07-03T03:21:16;101575.59;;;18.04;60.60
39773;BME280;25451;51.960;6.250;2022-07-03T03:23:49;101550.69;;;17.87;60.73
39773;BME280;25451;51.960;6.250;2022-07-03T03:26:24;101579.50;;;18.03;60.79
39773;BME280;25451;51.960;6.250;2022-07-03T03:28:50;101587.31;;;18.01;60.80
39773;BME280;25451;51.960;6.250;2022-07-03T03:31:17;101582.84;;;17.95;60.77
39773;BME280;25451;51.960;6.250;2022-07-03T03:33:46;101592.06;;;17.95;60.87
39773;BME280;25451;51.960;6.250;2022-07-03T03:36:13;101590.66;;;17.93;60.97
39773;BME280;25451;51.960;6.250;2022-07-03T03:38:40;101592.88;;;17.91;60.71
39773;BME280;25451;51.960;6.250;2022-07-03T03:41:06;101599.84;;;17.88;60.80
39773;BME280;25451;51.960;6.250;2022-07-03T03:43:32;101590.34;;;17.84;60.64
39773;BME280;25451;51.960;6.250;2022-07-03T03:45:58;101588.34;;;17.80;60.98
39773;BME280;25451;51.960;6.250;2022-07-03T03:48:25;101587.53;;;17.79;61.02
39773;BME280;25451;51.960;6.250;2022-07-03T03:50:51;101590.34;;;17.79;60.99
39773;BME280;25451;51.960;6.250;2022-07-03T03:53:17;101586.97;;;17.77;61.13
39773;BME280;25451;51.960;6.250;2022-07-03T03:58:18;101591.44;;;17.73;61.07
39773;BME280;25451;51.960;6.250;2022-07-03T04:00:44;101586.09;;;17.67;61.15
39773;BME280;25451;51.960;6.250;2022-07-03T04:03:09;101597.53;;;17.70;61.05
39773;BME280;25451;51.960;6.250;2022-07-03T04:05:34;101594.75;;;17.70;61.11
39773;BME280;25451;51.960;6.250;2022-07-03T04:07:59;101584.66;;;17.59;61.23
39773;BME280;25451;51.960;6.250;2022-07-03T04:10:25;101607.31;;;17.68;61.08
39773;BME280;25451;51.960;6.250;2022-07-03T04:12:50;101605.34;;;17.68;61.07
39773;BME280;25451;51.960;6.250;2022-07-03T04:15:15;101588.28;;;17.60;61.09
39773;BME280;25451;51.960;6.250;2022-07-03T04:17:41;101600.63;;;17.69;61.29
39773;BME280;25451;51.960;6.250;2022-07-03T04:20:06;101600.34;;;17.70;61.22
39773;BME280;25451;51.960;6.250;2022-07-03T04:22:32;101587.47;;;17.64;61.23
39773;BME280;25451;51.960;6.250;2022-07-03T04:24:57;101590.59;;;17.73;61.25
39773;BME280;25451;51.960;6.250;2022-07-03T04:27:22;101592.00;;;17.75;60.82
39773;BME280;25451;51.960;6.250;2022-07-03T04:29:48;101593.13;;;17.84;61.10
39773;BME280;25451;51.960;6.250;2022-07-03T04:32:13;101593.72;;;17.91;61.09
39773;BME280;25451;51.960;6.250;2022-07-03T04:34:38;101598.22;;;17.97;60.95
39773;BME280;25451;51.960;6.250;2022-07-03T04:37:03;101568.03;;;17.89;60.79
39773;BME280;25451;51.960;6.250;2022-07-03T04:39:29;101588.47;;;18.10;60.69
39773;BME280;25451;51.960;6.250;2022-07-03T04:41:54;101589.88;;;18.17;60.70
39773;BME280;25451;51.960;6.250;2022-07-03T04:44:19;101561.34;;;18.10;60.45
39773;BME280;25451;51.960;6.250;2022-07-03T04:46:45;101583.19;;;18.34;60.41
39773;BME280;25451;51.960;6.250;2022-07-03T04:49:10;101588.56;;;18.50;60.14
39773;BME280;25451;51.960;6.250;2022-07-03T04:51:35;101581.84;;;18.56;60.12
39773;BME280;25451;51.960;6.250;2022-07-03T04:54:01;101601.69;;;18.70;60.13
39773;BME280;25451;51.960;6.250;2022-07-03T04:56:26;101597.47;;;18.77;60.14
39773;BME280;25451;51.960;6.250;2022-07-03T04:58:51;101591.31;;;18.75;60.08
39773;BME280;25451;51.960;6.250;2022-07-03T05:01:16;101601.69;;;18.85;60.23
39773;BME280;25451;51.960;6.250;2022-07-03T05:03:42;101608.94;;;18.86;60.37
39773;BME280;25451;51.960;6.250;2022-07-03T05:06:07;101617.06;;;18.87;60.35
39773;BME280;25451;51.960;6.250;2022-07-03T05:08:32;101594.97;;;18.81;60.35
39773;BME280;25451;51.960;6.250;2022-07-03T05:10:58;101608.97;;;18.91;60.28
39773;BME280;25451;51.960;6.250;2022-07-03T05:13:25;101606.72;;;18.88;60.25
39773;BME280;25451;51.960;6.250;2022-07-03T05:15:50;101611.47;;;18.97;60.39
39773;BME280;25451;51.960;6.250;2022-07-03T05:18:15;101610.34;;;18.98;60.19
39773;BME280;25451;51.960;6.250;2022-07-03T05:20:41;101614.25;;;19.02;60.49
39773;BME280;25451;51.960;6.250;2022-07-03T05:23:06;101624.06;;;19.05;60.44
39773;BME280;25451;51.960;6.250;2022-07-03T05:25:32;101622.38;;;19.09;60.50
39773;BME280;25451;51.960;6.250;2022-07-03T05:27:58;101621.22;;;19.20;60.40
39773;BME280;25451;51.960;6.250;2022-07-03T05:30:24;101620.69;;;19.33;60.34
39773;BME280;25451;51.960;6.250;2022-07-03T05:32:51;101625.13;;;19.49;60.03
39773;BME280;25451;51.960;6.250;2022-07-03T05:35:16;101636.25;;;19.69;59.85
39773;BME280;25451;51.960;6.250;2022-07-03T05:37:41;101620.22;;;19.85;59.67
39773;BME280;25451;51.960;6.250;2022-07-03T05:40:09;101625.41;;;20.12;59.22
39773;BME280;25451;51.960;6.250;2022-07-03T05:42:35;101627.84;;;20.33;58.97
39773;BME280;25451;51.960;6.250;2022-07-03T05:45:00;101625.41;;;20.60;58.73
39773;BME280;25451;51.960;6.250;2022-07-03T05:47:26;101615.16;;;20.80;58.56
39773;BME280;25451;51.960;6.250;2022-07-03T05:49:51;101613.56;;;20.97;58.26
39773;BME280;25451;51.960;6.250;2022-07-03T05:52:17;101623.47;;;21.23;58.08
39773;BME280;25451;51.960;6.250;2022-07-03T05:54:43;101620.78;;;21.37;57.91
39773;BME280;25451;51.960;6.250;2022-07-03T05:57:08;101628.53;;;21.50;57.92
39773;BME280;25451;51.960;6.250;2022-07-03T05:59:33;101621.19;;;21.54;57.82
39773;BME280;25451;51.960;6.250;2022-07-03T06:01:59;101619.59;;;21.67;57.72
39773;BME280;25451;51.960;6.250;2022-07-03T06:04:24;101634.38;;;21.77;57.67
39773;BME280;25451;51.960;6.250;2022-07-03T06:06:49;101639.06;;;21.87;57.45
39773;BME280;25451;51.960;6.250;2022-07-03T06:09:15;101621.06;;;21.88;57.52
39773;BME280;25451;51.960;6.250;2022-07-03T06:11:40;101637.75;;;22.03;57.37
39773;BME280;25451;51.960;6.250;2022-07-03T06:14:05;101627.56;;;22.07;57.22
39773;BME280;25451;51.960;6.250;2022-07-03T06:16:31;101638.59;;;22.22;56.98
39773;BME280;25451;51.960;6.250;2022-07-03T06:18:56;101632.28;;;22.30;56.82
39773;BME280;25451;51.960;6.250;2022-07-03T06:21:21;101630.47;;;22.39;56.56
39773;BME280;25451;51.960;6.250;2022-07-03T06:23:47;101633.19;;;22.44;56.46
39773;BME280;25451;51.960;6.250;2022-07-03T06:26:13;101637.59;;;22.50;56.25
39773;BME280;25451;51.960;6.250;2022-07-03T06:28:39;101644.81;;;22.56;56.15
39773;BME280;25451;51.960;6.250;2022-07-03T06:31:05;101642.56;;;22.58;56.06
39773;BME280;25451;51.960;6.250;2022-07-03T06:33:30;101641.97;;;22.61;55.93
39773;BME280;25451;51.960;6.250;2022-07-03T06:35:55;101640.81;;;22.62;55.71
39773;BME280;25451;51.960;6.250;2022-07-03T06:38:21;101644.09;;;22.69;55.65
39773;BME280;25451;51.960;6.250;2022-07-03T06:40:46;101641.34;;;22.83;55.38
39773;BME280;25451;51.960;6.250;2022-07-03T06:43:11;101639.91;;;22.85;55.26
39773;BME280;25451;51.960;6.250;2022-07-03T06:45:37;101652.56;;;23.01;54.95
39773;BME280;25451;51.960;6.250;2022-07-03T06:48:02;101648.97;;;23.15;54.78
39773;BME280;25451;51.960;6.250;2022-07-03T06:50:27;101653.06;;;23.22;54.56
39773;BME280;25451;51.960;6.250;2022-07-03T06:52:53;101614.72;;;23.07;54.46
39773;BME280;25451;51.960;6.250;2022-07-03T06:55:18;101636.59;;;23.29;54.28
39773;BME280;25451;51.960;6.250;2022-07-03T06:57:43;101661.47;;;23.41;54.20
39773;BME280;25451;51.960;6.250;2022-07-03T07:00:09;101640.59;;;23.42;53.83
39773;BME280;25451;51.960;6.250;2022-07-03T07:02:35;101638.81;;;23.46;53.81
39773;BME280;25451;51.960;6.250;2022-07-03T07:05:00;101652.72;;;23.56;53.64
39773;BME280;25451;51.960;6.250;2022-07-03T07:07:25;101638.63;;;23.56;53.84
39773;BME280;25451;51.960;6.250;2022-07-03T07:09:51;101643.56;;;23.64;53.82
39773;BME280;25451;51.960;6.250;2022-07-03T07:12:16;101627.19;;;23.66;53.68
39773;BME280;25451;51.960;6.250;2022-07-03T07:14:42;101653.91;;;23.82;53.48
39773;BME280;25451;51.960;6.250;2022-07-03T07:17:07;101647.81;;;23.88;53.48
39773;BME280;25451;51.960;6.250;2022-07-03T07:19:33;101657.44;;;24.01;52.96
39773;BME280;25451;51.960;6.250;2022-07-03T07:21:58;101654.75;;;24.10;52.89
39773;BME280;25451;51.960;6.250;2022-07-03T07:24:26;101644.41;;;24.19;52.66
39773;BME280;25451;51.960;6.250;2022-07-03T07:26:51;101648.34;;;24.31;52.51
39773;BME280;25451;51.960;6.250;2022-07-03T07:29:16;101628.28;;;24.33;52.17
39773;BME280;25451;51.960;6.250;2022-07-03T07:31:42;101653.59;;;24.60;52.12
39773;BME280;25451;51.960;6.250;2022-07-03T07:34:07;101633.19;;;24.63;52.16
39773;BME280;25451;51.960;6.250;2022-07-03T07:36:33;101651.66;;;24.83;51.54
39773;BME280;25451;51.960;6.250;2022-07-03T07:38:58;101655.91;;;24.94;51.77
39773;BME280;25451;51.960;6.250;2022-07-03T07:41:24;101654.44;;;24.96;51.44
39773;BME280;25451;51.960;6.250;2022-07-03T07:43:49;101648.84;;;25.05;51.29
39773;BME280;25451;51.960;6.250;2022-07-03T07:46:14;101653.91;;;25.16;51.07
39773;BME280;25451;51.960;6.250;2022-07-03T07:48:40;101668.88;;;25.39;50.75
39773;BME280;25451;51.960;6.250;2022-07-03T07:51:05;101653.75;;;25.43;50.64
39773;BME280;25451;51.960;6.250;2022-07-03T07:53:30;101667.53;;;25.67;50.45
39773;BME280;25451;51.960;6.250;2022-07-03T07:55:56;101669.13;;;25.82;50.26
39773;BME280;25451;51.960;6.250;2022-07-03T07:58:21;101673.81;;;25.95;49.99
39773;BME280;25451;51.960;6.250;2022-07-03T08:00:47;101681.91;;;26.10;49.82
39773;BME280;25451;51.960;6.250;2022-07-03T08:03:31;101683.56;;;26.19;49.81
39773;BME280;25451;51.960;6.250;2022-07-03T08:06:15;101687.59;;;26.27;49.64
39773;BME280;25451;51.960;6.250;2022-07-03T08:08:40;101665.44;;;26.20;49.52
39773;BME280;25451;51.960;6.250;2022-07-03T08:11:05;101676.47;;;26.31;49.40
39773;BME280;25451;51.960;6.250;2022-07-03T08:13:32;101669.13;;;26.29;49.40
39773;BME280;25451;51.960;6.250;2022-07-03T08:15:57;101676.94;;;26.41;49.39
39773;BME280;25451;51.960;6.250;2022-07-03T08:18:22;101692.63;;;26.56;49.03
39773;BME280;25451;51.960;6.250;2022-07-03T08:20:48;101694.00;;;26.67;48.87
39773;BME280;25451;51.960;6.250;2022-07-03T08:23:14;101688.38;;;26.75;48.80
39773;BME280;25451;51.960;6.250;2022-07-03T08:25:39;101669.72;;;26.83;48.68
39773;BME280;25451;51.960;6.250;2022-07-03T08:28:04;101672.69;;;26.95;48.35
39773;BME280;25451;51.960;6.250;2022-07-03T08:30:30;101696.19;;;27.13;48.13
39773;BME280;25451;51.960;6.250;2022-07-03T08:32:57;101691.34;;;27.22;47.99
39773;BME280;25451;51.960;6.250;2022-07-03T08:35:22;101688.50;;;27.30;47.71
39773;BME280;25451;51.960;6.250;2022-07-03T08:37:48;101691.53;;;27.42;47.51
39773;BME280;25451;51.960;6.250;2022-07-03T08:40:15;101688.69;;;27.42;46.95
39773;BME280;25451;51.960;6.250;2022-07-03T08:42:50;101695.34;;;27.55;46.88
39773;BME280;25451;51.960;6.250;2022-07-03T08:45:19;101677.47;;;27.54;46.62
39773;BME280;25451;51.960;6.250;2022-07-03T08:47:47;101697.59;;;27.70;46.31
39773;BME280;25451;51.960;6.250;2022-07-03T08:50:19;101689.94;;;27.70;46.11
39773;BME280;25451;51.960;6.250;2022-07-03T08:52:46;101677.41;;;27.71;45.91
39773;BME280;25451;51.960;6.250;2022-07-03T08:55:13;101693.69;;;27.92;45.63
39773;BME280;25451;51.960;6.250;2022-07-03T08:57:40;101690.34;;;27.98;45.42
39773;BME280;25451;51.960;6.250;2022-07-03T09:00:11;101691.28;;;28.11;45.45
39773;BME280;25451;51.960;6.250;2022-07-03T09:02:38;101680.38;;;28.21;44.99
39773;BME280;25451;51.960;6.250;2022-07-03T09:05:06;101670.34;;;28.24;44.97
39773;BME280;25451;51.960;6.250;2022-07-03T09:07:36;101681.31;;;28.34;44.73
39773;BME280;25451;51.960;6.250;2022-07-03T09:10:03;101685.56;;;28.48;44.39
39773;BME280;25451;51.960;6.250;2022-07-03T09:12:34;101686.19;;;28.54;44.44
39773;BME280;25451;51.960;6.250;2022-07-03T09:15:00;101687.13;;;28.66;44.25
39773;BME280;25451;51.960;6.250;2022-07-03T09:17:27;101687.03;;;28.75;44.28
39773;BME280;25451;51.960;6.250;2022-07-03T09:19:52;101677.22;;;28.73;44.21
39773;BME280;25451;51.960;6.250;2022-07-03T09:22:25;101690.94;;;28.91;44.02
39773;BME280;25451;51.960;6.250;2022-07-03T09:24:53;101683.41;;;28.95;43.93
39773;BME280;25451;51.960;6.250;2022-07-03T09:27:21;101676.31;;;29.01;43.93
39773;BME280;25451;51.960;6.250;2022-07-03T09:32:30;101671.19;;;29.15;43.48
39773;BME280;25451;51.960;6.250;2022-07-03T09:37:50;101692.09;;;29.31;43.16
39773;BME280;25451;51.960;6.250;2022-07-03T09:40:16;101692.34;;;29.38;43.11
39773;BME280;25451;51.960;6.250;2022-07-03T09:45:24;101687.91;;;29.49;42.88
39773;BME280;25451;51.960;6.250;2022-07-03T09:47:50;101679.84;;;29.52;42.55
39773;BME280;25451;51.960;6.250;2022-07-03T09:50:15;101665.13;;;29.49;42.10
39773;BME280;25451;51.960;6.250;2022-07-03T09:52:43;101684.88;;;29.67;42.15
39773;BME280;25451;51.960;6.250;2022-07-03T09:57:34;101698.31;;;29.78;42.25
39773;BME280;25451;51.960;6.250;2022-07-03T10:05:34;101687.63;;;29.87;41.35
39773;BME280;25451;51.960;6.250;2022-07-03T10:08:04;101690.72;;;29.94;41.67
39773;BME280;25451;51.960;6.250;2022-07-03T10:10:31;101695.47;;;30.02;41.68
39773;BME280;25451;51.960;6.250;2022-07-03T10:12:58;101683.25;;;30.02;41.20
39773;BME280;25451;51.960;6.250;2022-07-03T10:15:25;101679.72;;;30.05;41.39
39773;BME280;25451;51.960;6.250;2022-07-03T10:17:53;101695.13;;;30.16;40.98
39773;BME280;25451;51.960;6.250;2022-07-03T10:20:38;101691.47;;;30.15;41.06
39773;BME280;25451;51.960;6.250;2022-07-03T10:23:03;101690.28;;;30.16;41.24
39773;BME280;25451;51.960;6.250;2022-07-03T10:25:32;101701.19;;;30.26;41.05
39773;BME280;25451;51.960;6.250;2022-07-03T10:27:58;101691.59;;;30.31;40.54
39773;BME280;25451;51.960;6.250;2022-07-03T10:30:25;101693.09;;;30.28;40.10
39773;BME280;25451;51.960;6.250;2022-07-03T10:32:53;101703.94;;;30.35;40.40
39773;BME280;25451;51.960;6.250;2022-07-03T10:35:21;101692.44;;;30.32;40.31
39773;BME280;25451;51.960;6.250;2022-07-03T10:43:40;101697.66;;;30.42;40.63
39773;BME280;25451;51.960;6.250;2022-07-03T10:46:25;101694.81;;;30.42;40.73
39773;BME280;25451;51.960;6.250;2022-07-03T10:49:07;101709.50;;;30.56;40.21
39773;BME280;25451;51.960;6.250;2022-07-03T10:52:02;101703.56;;;30.61;40.56
39773;BME280;25451;51.960;6.250;2022-07-03T10:54:33;101698.47;;;30.54;40.36
39773;BME280;25451;51.960;6.250;2022-07-03T11:02:17;101709.16;;;30.45;39.69
39773;BME280;25451;51.960;6.250;2022-07-03T11:13:00;101707.97;;;30.34;40.47
39773;BME280;25451;51.960;6.250;2022-07-03T11:15:45;101707.50;;;30.32;40.31
39773;BME280;25451;51.960;6.250;2022-07-03T11:25:40;101710.00;;;30.34;40.59
39773;BME280;25451;51.960;6.250;2022-07-03T11:28:05;101709.53;;;30.32;40.76
39773;BME280;25451;51.960;6.250;2022-07-03T11:30:31;101706.03;;;30.26;40.77
39773;BME280;25451;51.960;6.250;2022-07-03T11:32:58;101699.41;;;30.22;40.42
39773;BME280;25451;51.960;6.250;2022-07-03T11:35:50;101700.59;;;30.21;40.42
39773;BME280;25451;51.960;6.250;2022-07-03T11:38:26;101693.47;;;30.15;40.73
39773;BME280;25451;51.960;6.250;2022-07-03T11:40:54;101697.28;;;30.07;40.58
39773;BME280;25451;51.960;6.250;2022-07-03T11:43:20;101685.75;;;30.03;40.55
39773;BME280;25451;51.960;6.250;2022-07-03T11:45:47;101697.28;;;30.07;40.75
39773;BME280;25451;51.960;6.250;2022-07-03T11:48:15;101691.44;;;30.03;40.49
39773;BME280;25451;51.960;6.250;2022-07-03T11:50:42;101706.28;;;30.09;40.78
39773;BME280;25451;51.960;6.250;2022-07-03T11:53:30;101711.75;;;30.14;40.23
39773;BME280;25451;51.960;6.250;2022-07-03T11:56:06;101703.66;;;30.16;40.58
39773;BME280;25451;51.960;6.250;2022-07-03T11:58:48;101696.06;;;30.20;40.59
39773;BME280;25451;51.960;6.250;2022-07-03T12:03:52;101691.47;;;30.15;40.38
39773;BME280;25451;51.960;6.250;2022-07-03T12:06:19;101689.44;;;30.16;40.13
39773;BME280;25451;51.960;6.250;2022-07-03T12:08:45;101695.75;;;30.21;40.20
39773;BME280;25451;51.960;6.250;2022-07-03T12:11:13;101694.66;;;30.26;40.57
39773;BME280;25451;51.960;6.250;2022-07-03T12:13:39;101691.47;;;30.27;40.58
39773;BME280;25451;51.960;6.250;2022-07-03T12:18:53;101692.28;;;30.28;40.38
39773;BME280;25451;51.960;6.250;2022-07-03T12:21:20;101692.16;;;30.24;39.98
39773;BME280;25451;51.960;6.250;2022-07-03T12:23:53;101684.09;;;30.14;40.30
39773;BME280;25451;51.960;6.250;2022-07-03T12:26:30;101691.56;;;30.07;39.95
39773;BME280;25451;51.960;6.250;2022-07-03T12:28:57;101670.44;;;29.96;40.02
39773;BME280;25451;51.960;6.250;2022-07-03T12:31:23;101679.09;;;29.99;40.23
39773;BME280;25451;51.960;6.250;2022-07-03T12:33:49;101676.88;;;29.93;39.96
39773;BME280;25451;51.960;6.250;2022-07-03T12:36:14;101674.47;;;29.83;39.72
39773;BME280;25451;51.960;6.250;2022-07-03T12:38:40;101658.34;;;29.75;39.78
39773;BME280;25451;51.960;6.250;2022-07-03T12:41:07;101680.03;;;29.79;39.89
39773;BME280;25451;51.960;6.250;2022-07-03T12:43:38;101663.75;;;29.68;39.89
39773;BME280;25451;51.960;6.250;2022-07-03T12:46:24;101664.09;;;29.66;39.74
39773;BME280;25451;51.960;6.250;2022-07-03T12:48:51;101671.31;;;29.64;40.31
39773;BME280;25451;51.960;6.250;2022-07-03T12:51:38;101672.84;;;29.61;40.39
39773;BME280;25451;51.960;6.250;2022-07-03T12:54:05;101654.91;;;29.48;40.24
39773;BME280;25451;51.960;6.250;2022-07-03T12:56:30;101669.50;;;29.47;40.03
39773;BME280;25451;51.960;6.250;2022-07-03T12:58:55;101671.38;;;29.43;40.28
39773;BME280;25451;51.960;6.250;2022-07-03T13:01:39;101670.50;;;29.30;40.19
39773;BME280;25451;51.960;6.250;2022-07-03T13:04:05;101676.19;;;29.30;40.25
39773;BME280;25451;51.960;6.250;2022-07-03T13:06:33;101676.63;;;29.20;40.20
39773;BME280;25451;51.960;6.250;2022-07-03T13:09:01;101679.50;;;29.20;39.88
39773;BME280;25451;51.960;6.250;2022-07-03T13:11:31;101679.72;;;29.15;40.10
39773;BME280;25451;51.960;6.250;2022-07-03T13:14:16;101675.41;;;29.09;40.22
39773;BME280;25451;51.960;6.250;2022-07-03T13:16:50;101665.91;;;29.05;40.15
39773;BME280;25451;51.960;6.250;2022-07-03T13:19:18;101672.06;;;29.07;40.11
39773;BME280;25451;51.960;6.250;2022-07-03T13:21:44;101671.09;;;29.03;39.96
39773;BME280;25451;51.960;6.250;2022-07-03T13:24:12;101668.34;;;28.95;40.42
39773;BME280;25451;51.960;6.250;2022-07-03T13:26:38;101666.53;;;28.90;40.11
39773;BME280;25451;51.960;6.250;2022-07-03T13:29:04;101656.91;;;28.83;40.26
39773;BME280;25451;51.960;6.250;2022-07-03T13:31:29;101668.91;;;28.88;40.13
39773;BME280;25451;51.960;6.250;2022-07-03T13:33:56;101638.59;;;28.72;40.53
39773;BME280;25451;51.960;6.250;2022-07-03T13:36:21;101674.09;;;28.86;40.54
39773;BME280;25451;51.960;6.250;2022-07-03T13:38:46;101663.28;;;28.80;40.27
39773;BME280;25451;51.960;6.250;2022-07-03T13:41:12;101661.97;;;28.77;40.32
39773;BME280;25451;51.960;6.250;2022-07-03T13:43:38;101662.84;;;28.69;40.24
39773;BME280;25451;51.960;6.250;2022-07-03T13:46:03;101665.91;;;28.64;40.10
39773;BME280;25451;51.960;6.250;2022-07-03T13:48:28;101664.94;;;28.60;40.12
39773;BME280;25451;51.960;6.250;2022-07-03T13:50:54;101667.31;;;28.58;39.94
39773;BME280;25451;51.960;6.250;2022-07-03T13:53:19;101653.97;;;28.50;39.97
39773;BME280;25451;51.960;6.250;2022-07-03T13:55:44;101665.31;;;28.50;39.64
39773;BME280;25451;51.960;6.250;2022-07-03T13:58:10;101677.38;;;28.47;39.64
39773;BME280;25451;51.960;6.250;2022-07-03T14:00:35;101676.75;;;28.41;39.56
39773;BME280;25451;51.960;6.250;2022-07-03T14:03:01;101672.78;;;28.34;39.75
39773;BME280;25451;51.960;6.250;2022-07-03T14:05:27;101673.31;;;28.27;39.66
39773;BME280;25451;51.960;6.250;2022-07-03T14:07:54;101673.47;;;28.31;39.72
39773;BME280;25451;51.960;6.250;2022-07-03T14:10:19;101667.03;;;28.22;39.82